sensor_id;sensor_type;location;lat;lon;timestamp;P1;durP1;ratioP1;P2;durP2;ratioP2
23747;SDS011;12054;53.662;10.126;2023-05-10T00:01:10;5.03;;;3.70;;
23747;SDS011;12054;53.662;10.126;2023-05-10T00:03:36;4.57;;;3.58;;
23747;SDS011;12054;53.662;10.126;2023-05-10T00:06:01;4.47;;;3.78;;
23747;SDS011;12054;53.662;10.126;2023-05-10T00:08:27;5.22;;;3.80;;
23747;SDS011;12054;53.662;10.126;2023-05-10T00:10:53;6.43;;;3.33;;
23747;SDS011;12054;53.662;10.126;2023-05-10T00:13:18;6.05;;;3.80;;
23747;SDS011;12054;53.662;10.126;2023-05-10T00:15:44;4.90;;;3.70;;
23747;SDS011;12054;53.662;10.126;2023-05-10T00:18:09;5.13;;;3.53;;
23747;SDS011;12054;53.662;10.126;2023-05-10T00:20:35;4.70;;;3.80;;
23747;SDS011;12054;53.662;10.126;2023-05-10T00:23:00;4.50;;;3.20;;
23747;SDS011;12054;53.662;10.126;2023-05-10T00:25:26;5.78;;;3.70;;
23747;SDS011;12054;53.662;10.126;2023-05-10T00:27:51;6.22;;;3.83;;
23747;SDS011;12054;53.662;10.126;2023-05-10T00:30:17;5.20;;;4.20;;
23747;SDS011;12054;53.662;10.126;2023-05-10T00:32:43;5.88;;;4.10;;
23747;SDS011;12054;53.662;10.126;2023-05-10T00:35:09;6.50;;;3.95;;
23747;SDS011;12054;53.662;10.126;2023-05-10T00:37:34;4.90;;;4.15;;
23747;SDS011;12054;53.662;10.126;2023-05-10T00:40:00;5.93;;;3.90;;
23747;SDS011;12054;53.662;10.126;2023-05-10T00:42:25;5.53;;;4.38;;
23747;SDS011;12054;53.662;10.126;2023-05-10T00:44:51;7.18;;;3.70;;
23747;SDS011;12054;53.662;10.126;2023-05-10T00:47:16;5.90;;;3.33;;
23747;SDS011;12054;53.662;10.126;2023-05-10T00:49:43;5.07;;;3.92;;
23747;SDS011;12054;53.662;10.126;2023-05-10T00:52:10;4.47;;;3.85;;
23747;SDS011;12054;53.662;10.126;2023-05-10T00:54:35;5.63;;;3.92;;
23747;SDS011;12054;53.662;10.126;2023-05-10T00:57:01;5.65;;;3.50;;
23747;SDS011;12054;53.662;10.126;2023-05-10T00:59:28;4.38;;;3.50;;
23747;SDS011;12054;53.662;10.126;2023-05-10T01:01:54;5.45;;;4.10;;
23747;SDS011;12054;53.662;10.126;2023-05-10T01:04:19;5.10;;;3.88;;
23747;SDS011;12054;53.662;10.126;2023-05-10T01:06:50;8.07;;;4.13;;
23747;SDS011;12054;53.662;10.126;2023-05-10T01:09:16;10.73;;;4.28;;
23747;SDS011;12054;53.662;10.126;2023-05-10T01:11:42;7.53;;;4.05;;
23747;SDS011;12054;53.662;10.126;2023-05-10T01:14:07;10.25;;;5.38;;
23747;SDS011;12054;53.662;10.126;2023-05-10T01:16:36;5.93;;;4.60;;
23747;SDS011;12054;53.662;10.126;2023-05-10T01:19:08;5.25;;;3.72;;
23747;SDS011;12054;53.662;10.126;2023-05-10T01:27:33;4.68;;;3.75;;
23747;SDS011;12054;53.662;10.126;2023-05-10T01:36:19;4.95;;;3.85;;
23747;SDS011;12054;53.662;10.126;2023-05-10T01:38:57;5.07;;;4.15;;
23747;SDS011;12054;53.662;10.126;2023-05-10T01:41:40;7.18;;;4.00;;
23747;SDS011;12054;53.662;10.126;2023-05-10T01:47:14;5.93;;;4.00;;
23747;SDS011;12054;53.662;10.126;2023-05-10T01:49:49;3.90;;;3.42;;
23747;SDS011;12054;53.662;10.126;2023-05-10T01:52:18;5.78;;;4.25;;
23747;SDS011;12054;53.662;10.126;2023-05-10T01:54:49;5.97;;;4.05;;
23747;SDS011;12054;53.662;10.126;2023-05-10T01:57:21;7.30;;;3.85;;
23747;SDS011;12054;53.662;10.126;2023-05-10T01:59:49;7.20;;;4.20;;
23747;SDS011;12054;53.662;10.126;2023-05-10T02:02:16;7.15;;;3.65;;
23747;SDS011;12054;53.662;10.126;2023-05-10T02:04:45;7.20;;;4.43;;
23747;SDS011;12054;53.662;10.126;2023-05-10T02:07:12;5.50;;;4.25;;
23747;SDS011;12054;53.662;10.126;2023-05-10T02:09:39;6.22;;;4.35;;
23747;SDS011;12054;53.662;10.126;2023-05-10T02:12:08;6.70;;;4.30;;
23747;SDS011;12054;53.662;10.126;2023-05-10T02:14:36;9.63;;;4.60;;
23747;SDS011;12054;53.662;10.126;2023-05-10T02:17:04;9.05;;;4.22;;
23747;SDS011;12054;53.662;10.126;2023-05-10T02:19:31;5.28;;;4.15;;
23747;SDS011;12054;53.662;10.126;2023-05-10T02:21:57;5.20;;;3.78;;
23747;SDS011;12054;53.662;10.126;2023-05-10T02:24:25;6.18;;;4.13;;
23747;SDS011;12054;53.662;10.126;2023-05-10T02:26:53;5.70;;;3.88;;
23747;SDS011;12054;53.662;10.126;2023-05-10T02:29:20;8.32;;;4.60;;
23747;SDS011;12054;53.662;10.126;2023-05-10T02:31:51;5.88;;;4.00;;
23747;SDS011;12054;53.662;10.126;2023-05-10T02:34:19;4.18;;;3.50;;
23747;SDS011;12054;53.662;10.126;2023-05-10T02:36:47;6.32;;;4.30;;
23747;SDS011;12054;53.662;10.126;2023-05-10T02:39:13;7.68;;;4.07;;
23747;SDS011;12054;53.662;10.126;2023-05-10T02:41:40;5.63;;;4.10;;
23747;SDS011;12054;53.662;10.126;2023-05-10T02:44:07;5.03;;;4.15;;
23747;SDS011;12054;53.662;10.126;2023-05-10T02:46:35;5.95;;;3.67;;
23747;SDS011;12054;53.662;10.126;2023-05-10T02:49:02;5.45;;;4.20;;
23747;SDS011;12054;53.662;10.126;2023-05-10T02:51:30;4.22;;;3.80;;
23747;SDS011;12054;53.662;10.126;2023-05-10T02:53:57;6.63;;;4.35;;
23747;SDS011;12054;53.662;10.126;2023-05-10T02:56:29;4.82;;;4.03;;
23747;SDS011;12054;53.662;10.126;2023-05-10T02:58:59;5.93;;;4.15;;
23747;SDS011;12054;53.662;10.126;2023-05-10T03:01:24;6.60;;;4.70;;
23747;SDS011;12054;53.662;10.126;2023-05-10T03:03:50;5.25;;;4.15;;
23747;SDS011;12054;53.662;10.126;2023-05-10T03:06:15;6.00;;;4.30;;
23747;SDS011;12054;53.662;10.126;2023-05-10T03:08:48;6.40;;;4.07;;
23747;SDS011;12054;53.662;10.126;2023-05-10T03:14:07;6.43;;;4.07;;
23747;SDS011;12054;53.662;10.126;2023-05-10T03:16:44;7.53;;;4.30;;
23747;SDS011;12054;53.662;10.126;2023-05-10T03:19:26;6.28;;;3.90;;
23747;SDS011;12054;53.662;10.126;2023-05-10T03:22:04;5.88;;;3.70;;
23747;SDS011;12054;53.662;10.126;2023-05-10T03:24:35;5.40;;;4.25;;
23747;SDS011;12054;53.662;10.126;2023-05-10T03:27:16;7.25;;;4.47;;
23747;SDS011;12054;53.662;10.126;2023-05-10T03:29:42;8.63;;;4.18;;
23747;SDS011;12054;53.662;10.126;2023-05-10T03:32:09;5.90;;;4.50;;
23747;SDS011;12054;53.662;10.126;2023-05-10T03:34:35;5.15;;;3.90;;
23747;SDS011;12054;53.662;10.126;2023-05-10T03:37:07;5.57;;;4.47;;
23747;SDS011;12054;53.662;10.126;2023-05-10T03:39:32;6.30;;;4.55;;
23747;SDS011;12054;53.662;10.126;2023-05-10T03:41:58;7.35;;;4.80;;
23747;SDS011;12054;53.662;10.126;2023-05-10T03:44:24;5.63;;;3.83;;
23747;SDS011;12054;53.662;10.126;2023-05-10T03:46:50;7.50;;;4.35;;
23747;SDS011;12054;53.662;10.126;2023-05-10T03:49:15;4.97;;;4.45;;
23747;SDS011;12054;53.662;10.126;2023-05-10T03:51:41;7.47;;;4.50;;
23747;SDS011;12054;53.662;10.126;2023-05-10T03:54:06;6.53;;;4.40;;
23747;SDS011;12054;53.662;10.126;2023-05-10T03:56:32;6.05;;;4.20;;
23747;SDS011;12054;53.662;10.126;2023-05-10T03:58:57;6.55;;;4.72;;
23747;SDS011;12054;53.662;10.126;2023-05-10T04:01:23;5.40;;;4.50;;
23747;SDS011;12054;53.662;10.126;2023-05-10T04:03:48;6.63;;;4.30;;
23747;SDS011;12054;53.662;10.126;2023-05-10T04:06:14;7.00;;;4.38;;
23747;SDS011;12054;53.662;10.126;2023-05-10T04:08:40;5.65;;;3.88;;
23747;SDS011;12054;53.662;10.126;2023-05-10T04:11:08;5.78;;;3.85;;
23747;SDS011;12054;53.662;10.126;2023-05-10T04:13:36;4.65;;;4.00;;
23747;SDS011;12054;53.662;10.126;2023-05-10T04:16:01;5.15;;;4.35;;
23747;SDS011;12054;53.662;10.126;2023-05-10T04:18:27;7.38;;;4.38;;
23747;SDS011;12054;53.662;10.126;2023-05-10T04:20:52;7.45;;;4.28;;
23747;SDS011;12054;53.662;10.126;2023-05-10T04:23:18;4.97;;;4.30;;
23747;SDS011;12054;53.662;10.126;2023-05-10T04:25:43;6.13;;;4.10;;
23747;SDS011;12054;53.662;10.126;2023-05-10T04:28:09;5.28;;;4.30;;
23747;SDS011;12054;53.662;10.126;2023-05-10T04:30:35;4.75;;;3.75;;
23747;SDS011;12054;53.662;10.126;2023-05-10T04:33:01;6.35;;;4.40;;
23747;SDS011;12054;53.662;10.126;2023-05-10T04:35:27;6.57;;;4.30;;
23747;SDS011;12054;53.662;10.126;2023-05-10T04:37:56;6.40;;;4.47;;
23747;SDS011;12054;53.662;10.126;2023-05-10T04:40:21;6.63;;;4.40;;
23747;SDS011;12054;53.662;10.126;2023-05-10T04:42:47;4.53;;;4.03;;
23747;SDS011;12054;53.662;10.126;2023-05-10T04:45:12;5.65;;;4.30;;
23747;SDS011;12054;53.662;10.126;2023-05-10T04:47:39;5.78;;;4.82;;
23747;SDS011;12054;53.662;10.126;2023-05-10T04:50:05;5.68;;;4.45;;
23747;SDS011;12054;53.662;10.126;2023-05-10T04:52:31;6.93;;;4.32;;
23747;SDS011;12054;53.662;10.126;2023-05-10T04:54:57;7.57;;;4.60;;
23747;SDS011;12054;53.662;10.126;2023-05-10T04:57:22;5.05;;;4.28;;
23747;SDS011;12054;53.662;10.126;2023-05-10T04:59:48;4.80;;;4.07;;
23747;SDS011;12054;53.662;10.126;2023-05-10T05:02:13;7.22;;;4.40;;
23747;SDS011;12054;53.662;10.126;2023-05-10T05:04:39;8.63;;;4.68;;
23747;SDS011;12054;53.662;10.126;2023-05-10T05:07:04;7.40;;;4.22;;
23747;SDS011;12054;53.662;10.126;2023-05-10T05:09:30;5.90;;;4.30;;
23747;SDS011;12054;53.662;10.126;2023-05-10T05:11:58;7.28;;;4.18;;
23747;SDS011;12054;53.662;10.126;2023-05-10T05:14:24;5.47;;;4.50;;
23747;SDS011;12054;53.662;10.126;2023-05-10T05:16:50;6.95;;;4.65;;
23747;SDS011;12054;53.662;10.126;2023-05-10T05:19:16;5.53;;;4.60;;
23747;SDS011;12054;53.662;10.126;2023-05-10T05:21:41;5.55;;;4.32;;
23747;SDS011;12054;53.662;10.126;2023-05-10T05:24:07;8.02;;;5.07;;
23747;SDS011;12054;53.662;10.126;2023-05-10T05:26:33;9.75;;;4.55;;
23747;SDS011;12054;53.662;10.126;2023-05-10T05:28:58;6.88;;;4.10;;
23747;SDS011;12054;53.662;10.126;2023-05-10T05:31:24;5.07;;;4.53;;
23747;SDS011;12054;53.662;10.126;2023-05-10T05:33:49;10.10;;;4.53;;
23747;SDS011;12054;53.662;10.126;2023-05-10T05:36:15;5.93;;;4.65;;
23747;SDS011;12054;53.662;10.126;2023-05-10T05:38:40;7.35;;;4.68;;
23747;SDS011;12054;53.662;10.126;2023-05-10T05:41:09;8.25;;;4.47;;
23747;SDS011;12054;53.662;10.126;2023-05-10T05:43:35;7.28;;;4.50;;
23747;SDS011;12054;53.662;10.126;2023-05-10T05:46:00;4.88;;;4.38;;
23747;SDS011;12054;53.662;10.126;2023-05-10T05:48:26;5.95;;;4.13;;
23747;SDS011;12054;53.662;10.126;2023-05-10T05:50:55;6.15;;;4.93;;
23747;SDS011;12054;53.662;10.126;2023-05-10T05:53:29;5.22;;;4.60;;
23747;SDS011;12054;53.662;10.126;2023-05-10T05:55:56;5.50;;;4.20;;
23747;SDS011;12054;53.662;10.126;2023-05-10T05:58:22;5.68;;;4.50;;
23747;SDS011;12054;53.662;10.126;2023-05-10T06:00:49;5.10;;;4.20;;
23747;SDS011;12054;53.662;10.126;2023-05-10T06:03:16;4.88;;;3.97;;
23747;SDS011;12054;53.662;10.126;2023-05-10T06:05:41;6.40;;;4.47;;
23747;SDS011;12054;53.662;10.126;2023-05-10T06:08:11;7.03;;;4.45;;
23747;SDS011;12054;53.662;10.126;2023-05-10T06:10:37;6.82;;;4.50;;
23747;SDS011;12054;53.662;10.126;2023-05-10T06:13:02;6.72;;;4.45;;
23747;SDS011;12054;53.662;10.126;2023-05-10T06:15:28;5.60;;;4.03;;
23747;SDS011;12054;53.662;10.126;2023-05-10T06:17:53;4.90;;;3.90;;
23747;SDS011;12054;53.662;10.126;2023-05-10T06:20:19;6.43;;;4.47;;
23747;SDS011;12054;53.662;10.126;2023-05-10T06:22:44;7.65;;;4.10;;
23747;SDS011;12054;53.662;10.126;2023-05-10T06:25:10;5.28;;;4.25;;
23747;SDS011;12054;53.662;10.126;2023-05-10T06:27:36;6.05;;;4.57;;
23747;SDS011;12054;53.662;10.126;2023-05-10T06:30:01;6.45;;;4.90;;
23747;SDS011;12054;53.662;10.126;2023-05-10T06:32:27;5.18;;;4.53;;
23747;SDS011;12054;53.662;10.126;2023-05-10T06:34:53;5.10;;;4.25;;
23747;SDS011;12054;53.662;10.126;2023-05-10T06:37:19;5.95;;;4.60;;
23747;SDS011;12054;53.662;10.126;2023-05-10T06:39:45;6.60;;;4.75;;
23747;SDS011;12054;53.662;10.126;2023-05-10T06:42:10;7.80;;;3.97;;
23747;SDS011;12054;53.662;10.126;2023-05-10T06:44:36;5.78;;;4.38;;
23747;SDS011;12054;53.662;10.126;2023-05-10T06:47:01;8.73;;;4.65;;
23747;SDS011;12054;53.662;10.126;2023-05-10T06:49:27;5.18;;;4.35;;
23747;SDS011;12054;53.662;10.126;2023-05-10T06:51:52;5.38;;;4.25;;
23747;SDS011;12054;53.662;10.126;2023-05-10T06:54:18;6.53;;;4.43;;
23747;SDS011;12054;53.662;10.126;2023-05-10T06:56:44;8.18;;;4.88;;
23747;SDS011;12054;53.662;10.126;2023-05-10T06:59:09;5.15;;;4.65;;
23747;SDS011;12054;53.662;10.126;2023-05-10T07:01:35;5.72;;;4.70;;
23747;SDS011;12054;53.662;10.126;2023-05-10T07:04:00;5.65;;;4.30;;
23747;SDS011;12054;53.662;10.126;2023-05-10T07:06:26;4.90;;;3.53;;
23747;SDS011;12054;53.662;10.126;2023-05-10T07:08:54;6.82;;;5.10;;
23747;SDS011;12054;53.662;10.126;2023-05-10T07:11:20;6.45;;;4.93;;
23747;SDS011;12054;53.662;10.126;2023-05-10T07:13:46;7.20;;;5.25;;
23747;SDS011;12054;53.662;10.126;2023-05-10T07:16:11;6.43;;;4.40;;
23747;SDS011;12054;53.662;10.126;2023-05-10T07:18:37;7.25;;;4.85;;
23747;SDS011;12054;53.662;10.126;2023-05-10T07:21:02;5.82;;;4.72;;
23747;SDS011;12054;53.662;10.126;2023-05-10T07:23:28;6.38;;;4.80;;
23747;SDS011;12054;53.662;10.126;2023-05-10T07:25:55;4.78;;;4.32;;
23747;SDS011;12054;53.662;10.126;2023-05-10T07:28:22;5.72;;;4.57;;
23747;SDS011;12054;53.662;10.126;2023-05-10T07:30:49;6.78;;;4.60;;
23747;SDS011;12054;53.662;10.126;2023-05-10T07:33:15;6.30;;;4.68;;
23747;SDS011;12054;53.662;10.126;2023-05-10T07:35:41;6.00;;;4.72;;
23747;SDS011;12054;53.662;10.126;2023-05-10T07:38:07;5.88;;;4.50;;
23747;SDS011;12054;53.662;10.126;2023-05-10T07:40:33;7.07;;;4.70;;
23747;SDS011;12054;53.662;10.126;2023-05-10T07:42:58;5.80;;;4.63;;
23747;SDS011;12054;53.662;10.126;2023-05-10T07:45:26;5.60;;;4.75;;
23747;SDS011;12054;53.662;10.126;2023-05-10T07:47:52;6.00;;;4.57;;
23747;SDS011;12054;53.662;10.126;2023-05-10T07:50:17;6.25;;;4.57;;
23747;SDS011;12054;53.662;10.126;2023-05-10T07:52:43;9.75;;;4.53;;
23747;SDS011;12054;53.662;10.126;2023-05-10T07:55:08;5.13;;;4.70;;
23747;SDS011;12054;53.662;10.126;2023-05-10T07:57:34;7.18;;;5.20;;
23747;SDS011;12054;53.662;10.126;2023-05-10T08:00:00;6.18;;;4.80;;
23747;SDS011;12054;53.662;10.126;2023-05-10T08:02:26;5.43;;;4.60;;
23747;SDS011;12054;53.662;10.126;2023-05-10T08:04:51;6.05;;;5.05;;
23747;SDS011;12054;53.662;10.126;2023-05-10T08:07:17;6.05;;;4.43;;
23747;SDS011;12054;53.662;10.126;2023-05-10T08:09:43;5.18;;;4.25;;
23747;SDS011;12054;53.662;10.126;2023-05-10T08:12:08;6.30;;;4.40;;
23747;SDS011;12054;53.662;10.126;2023-05-10T08:14:34;7.15;;;4.78;;
23747;SDS011;12054;53.662;10.126;2023-05-10T08:17:01;6.07;;;4.65;;
23747;SDS011;12054;53.662;10.126;2023-05-10T08:19:27;7.60;;;5.40;;
23747;SDS011;12054;53.662;10.126;2023-05-10T08:21:52;5.90;;;4.70;;
23747;SDS011;12054;53.662;10.126;2023-05-10T08:24:20;5.53;;;4.95;;
23747;SDS011;12054;53.662;10.126;2023-05-10T08:26:46;6.72;;;4.47;;
23747;SDS011;12054;53.662;10.126;2023-05-10T08:29:12;5.40;;;4.50;;
23747;SDS011;12054;53.662;10.126;2023-05-10T08:31:38;5.15;;;4.47;;
23747;SDS011;12054;53.662;10.126;2023-05-10T08:34:03;5.95;;;4.82;;
23747;SDS011;12054;53.662;10.126;2023-05-10T08:36:32;6.38;;;5.03;;
23747;SDS011;12054;53.662;10.126;2023-05-10T08:39:04;6.32;;;4.88;;
23747;SDS011;12054;53.662;10.126;2023-05-10T08:41:29;5.53;;;5.03;;
23747;SDS011;12054;53.662;10.126;2023-05-10T08:43:58;5.50;;;4.82;;
23747;SDS011;12054;53.662;10.126;2023-05-10T08:46:28;6.95;;;4.70;;
23747;SDS011;12054;53.662;10.126;2023-05-10T08:48:55;4.78;;;4.22;;
23747;SDS011;12054;53.662;10.126;2023-05-10T08:51:23;6.57;;;4.80;;
23747;SDS011;12054;53.662;10.126;2023-05-10T08:53:51;4.60;;;4.07;;
23747;SDS011;12054;53.662;10.126;2023-05-10T08:56:17;9.70;;;4.35;;
23747;SDS011;12054;53.662;10.126;2023-05-10T08:58:44;5.38;;;4.80;;
23747;SDS011;12054;53.662;10.126;2023-05-10T09:01:10;6.32;;;4.63;;
23747;SDS011;12054;53.662;10.126;2023-05-10T09:03:38;5.90;;;4.40;;
23747;SDS011;12054;53.662;10.126;2023-05-10T09:06:03;9.52;;;4.90;;
23747;SDS011;12054;53.662;10.126;2023-05-10T09:08:30;8.32;;;5.07;;
23747;SDS011;12054;53.662;10.126;2023-05-10T09:10:56;7.78;;;4.90;;
23747;SDS011;12054;53.662;10.126;2023-05-10T09:13:22;5.90;;;4.75;;
23747;SDS011;12054;53.662;10.126;2023-05-10T09:15:49;6.65;;;4.88;;
23747;SDS011;12054;53.662;10.126;2023-05-10T09:18:15;7.75;;;5.20;;
23747;SDS011;12054;53.662;10.126;2023-05-10T09:20:41;8.13;;;5.00;;
23747;SDS011;12054;53.662;10.126;2023-05-10T09:23:07;10.32;;;5.07;;
23747;SDS011;12054;53.662;10.126;2023-05-10T09:25:32;5.95;;;4.68;;
23747;SDS011;12054;53.662;10.126;2023-05-10T09:27:58;5.68;;;4.93;;
23747;SDS011;12054;53.662;10.126;2023-05-10T09:30:25;7.32;;;4.85;;
23747;SDS011;12054;53.662;10.126;2023-05-10T09:32:52;9.55;;;5.05;;
23747;SDS011;12054;53.662;10.126;2023-05-10T09:35:20;6.50;;;4.97;;
23747;SDS011;12054;53.662;10.126;2023-05-10T09:37:48;6.95;;;5.38;;
23747;SDS011;12054;53.662;10.126;2023-05-10T09:40:16;8.57;;;5.65;;
23747;SDS011;12054;53.662;10.126;2023-05-10T09:42:59;6.30;;;5.00;;
23747;SDS011;12054;53.662;10.126;2023-05-10T09:45:27;6.13;;;5.07;;
23747;SDS011;12054;53.662;10.126;2023-05-10T09:47:54;6.20;;;5.60;;
23747;SDS011;12054;53.662;10.126;2023-05-10T09:50:20;6.80;;;5.13;;
23747;SDS011;12054;53.662;10.126;2023-05-10T09:52:50;6.97;;;5.18;;
23747;SDS011;12054;53.662;10.126;2023-05-10T09:55:18;13.07;;;5.70;;
23747;SDS011;12054;53.662;10.126;2023-05-10T09:57:45;7.47;;;6.07;;
23747;SDS011;12054;53.662;10.126;2023-05-10T10:00:16;8.48;;;6.00;;
23747;SDS011;12054;53.662;10.126;2023-05-10T10:02:45;6.43;;;5.40;;
23747;SDS011;12054;53.662;10.126;2023-05-10T10:05:13;6.65;;;5.90;;
23747;SDS011;12054;53.662;10.126;2023-05-10T10:07:39;8.13;;;5.35;;
23747;SDS011;12054;53.662;10.126;2023-05-10T10:10:05;7.32;;;5.50;;
23747;SDS011;12054;53.662;10.126;2023-05-10T10:12:36;7.28;;;5.53;;
23747;SDS011;12054;53.662;10.126;2023-05-10T10:15:02;7.22;;;5.97;;
23747;SDS011;12054;53.662;10.126;2023-05-10T10:17:29;8.07;;;5.63;;
23747;SDS011;12054;53.662;10.126;2023-05-10T10:19:56;7.93;;;5.60;;
23747;SDS011;12054;53.662;10.126;2023-05-10T10:22:23;6.40;;;5.78;;
23747;SDS011;12054;53.662;10.126;2023-05-10T10:24:48;8.82;;;5.82;;
23747;SDS011;12054;53.662;10.126;2023-05-10T10:27:23;6.43;;;5.82;;
23747;SDS011;12054;53.662;10.126;2023-05-10T10:35:12;6.63;;;5.78;;
23747;SDS011;12054;53.662;10.126;2023-05-10T10:37:45;8.95;;;6.60;;
23747;SDS011;12054;53.662;10.126;2023-05-10T10:40:27;6.88;;;6.18;;
23747;SDS011;12054;53.662;10.126;2023-05-10T10:42:55;10.93;;;8.30;;
23747;SDS011;12054;53.662;10.126;2023-05-10T10:45:21;11.68;;;8.15;;
23747;SDS011;12054;53.662;10.126;2023-05-10T10:47:48;13.38;;;8.00;;
23747;SDS011;12054;53.662;10.126;2023-05-10T10:50:14;9.40;;;7.65;;
23747;SDS011;12054;53.662;10.126;2023-05-10T10:52:43;10.55;;;8.18;;
23747;SDS011;12054;53.662;10.126;2023-05-10T10:55:27;8.73;;;7.63;;
23747;SDS011;12054;53.662;10.126;2023-05-10T10:57:55;10.25;;;7.55;;
23747;SDS011;12054;53.662;10.126;2023-05-10T11:00:30;11.15;;;7.93;;
23747;SDS011;12054;53.662;10.126;2023-05-10T11:05:41;10.00;;;8.57;;
23747;SDS011;12054;53.662;10.126;2023-05-10T11:13:32;11.15;;;9.18;;
23747;SDS011;12054;53.662;10.126;2023-05-10T11:16:12;11.20;;;8.02;;
23747;SDS011;12054;53.662;10.126;2023-05-10T11:18:38;10.63;;;9.40;;
23747;SDS011;12054;53.662;10.126;2023-05-10T11:21:03;10.55;;;9.07;;
23747;SDS011;12054;53.662;10.126;2023-05-10T11:23:51;11.02;;;9.50;;
23747;SDS011;12054;53.662;10.126;2023-05-10T11:26:23;10.40;;;8.30;;
23747;SDS011;12054;53.662;10.126;2023-05-10T11:28:51;8.82;;;7.75;;
23747;SDS011;12054;53.662;10.126;2023-05-10T11:31:20;8.88;;;7.90;;
23747;SDS011;12054;53.662;10.126;2023-05-10T11:33:47;10.65;;;8.35;;
23747;SDS011;12054;53.662;10.126;2023-05-10T11:36:15;11.10;;;8.10;;
23747;SDS011;12054;53.662;10.126;2023-05-10T11:38:41;8.93;;;8.02;;
23747;SDS011;12054;53.662;10.126;2023-05-10T11:41:10;10.05;;;8.23;;
23747;SDS011;12054;53.662;10.126;2023-05-10T11:43:38;9.70;;;8.30;;
23747;SDS011;12054;53.662;10.126;2023-05-10T11:46:07;9.40;;;7.68;;
23747;SDS011;12054;53.662;10.126;2023-05-10T11:48:35;11.98;;;8.60;;
23747;SDS011;12054;53.662;10.126;2023-05-10T11:51:03;10.93;;;8.73;;
23747;SDS011;12054;53.662;10.126;2023-05-10T11:53:29;11.98;;;9.48;;
23747;SDS011;12054;53.662;10.126;2023-05-10T11:56:02;12.68;;;8.88;;
23747;SDS011;12054;53.662;10.126;2023-05-10T11:58:37;11.55;;;8.38;;
23747;SDS011;12054;53.662;10.126;2023-05-10T12:01:04;11.48;;;8.98;;
23747;SDS011;12054;53.662;10.126;2023-05-10T12:03:31;9.48;;;7.75;;
23747;SDS011;12054;53.662;10.126;2023-05-10T12:05:58;11.00;;;8.27;;
23747;SDS011;12054;53.662;10.126;2023-05-10T12:08:25;12.73;;;8.85;;
23747;SDS011;12054;53.662;10.126;2023-05-10T12:10:53;11.43;;;8.55;;
23747;SDS011;12054;53.662;10.126;2023-05-10T12:13:28;11.82;;;9.48;;
23747;SDS011;12054;53.662;10.126;2023-05-10T12:15:54;8.57;;;7.45;;
23747;SDS011;12054;53.662;10.126;2023-05-10T12:18:23;10.60;;;8.10;;
23747;SDS011;12054;53.662;10.126;2023-05-10T12:20:51;11.70;;;8.80;;
23747;SDS011;12054;53.662;10.126;2023-05-10T12:23:21;11.27;;;9.55;;
23747;SDS011;12054;53.662;10.126;2023-05-10T12:25:46;11.88;;;8.80;;
23747;SDS011;12054;53.662;10.126;2023-05-10T12:28:12;13.40;;;10.43;;
23747;SDS011;12054;53.662;10.126;2023-05-10T12:30:37;12.90;;;10.07;;
23747;SDS011;12054;53.662;10.126;2023-05-10T12:33:08;13.80;;;10.13;;
23747;SDS011;12054;53.662;10.126;2023-05-10T12:35:45;13.10;;;10.13;;
23747;SDS011;12054;53.662;10.126;2023-05-10T12:40:56;15.05;;;11.95;;
23747;SDS011;12054;53.662;10.126;2023-05-10T12:43:22;10.98;;;9.30;;
23747;SDS011;12054;53.662;10.126;2023-05-10T12:45:48;11.73;;;8.68;;
23747;SDS011;12054;53.662;10.126;2023-05-10T12:48:14;11.85;;;9.48;;
23747;SDS011;12054;53.662;10.126;2023-05-10T12:50:40;12.13;;;10.27;;
23747;SDS011;12054;53.662;10.126;2023-05-10T12:53:05;10.63;;;9.52;;
23747;SDS011;12054;53.662;10.126;2023-05-10T12:55:31;12.77;;;10.80;;
23747;SDS011;12054;53.662;10.126;2023-05-10T12:57:57;13.15;;;10.23;;
23747;SDS011;12054;53.662;10.126;2023-05-10T13:00:22;13.05;;;9.90;;
23747;SDS011;12054;53.662;10.126;2023-05-10T13:02:48;11.18;;;9.77;;
23747;SDS011;12054;53.662;10.126;2023-05-10T13:05:13;12.00;;;9.93;;
23747;SDS011;12054;53.662;10.126;2023-05-10T13:07:39;11.70;;;9.93;;
23747;SDS011;12054;53.662;10.126;2023-05-10T13:10:05;11.30;;;8.48;;
23747;SDS011;12054;53.662;10.126;2023-05-10T13:12:32;12.30;;;9.85;;
23747;SDS011;12054;53.662;10.126;2023-05-10T13:14:57;11.25;;;8.77;;
23747;SDS011;12054;53.662;10.126;2023-05-10T13:17:25;11.23;;;8.85;;
23747;SDS011;12054;53.662;10.126;2023-05-10T13:19:50;10.85;;;9.02;;
23747;SDS011;12054;53.662;10.126;2023-05-10T13:22:16;9.30;;;7.80;;
23747;SDS011;12054;53.662;10.126;2023-05-10T13:24:41;9.32;;;7.32;;
23747;SDS011;12054;53.662;10.126;2023-05-10T13:27:07;10.40;;;8.55;;
23747;SDS011;12054;53.662;10.126;2023-05-10T13:29:32;8.63;;;7.72;;
23747;SDS011;12054;53.662;10.126;2023-05-10T13:31:58;7.60;;;6.88;;
23747;SDS011;12054;53.662;10.126;2023-05-10T13:34:24;9.88;;;7.70;;
23747;SDS011;12054;53.662;10.126;2023-05-10T13:36:49;9.68;;;7.38;;
23747;SDS011;12054;53.662;10.126;2023-05-10T13:39:15;11.45;;;7.32;;
23747;SDS011;12054;53.662;10.126;2023-05-10T13:41:44;9.65;;;6.72;;
23747;SDS011;12054;53.662;10.126;2023-05-10T13:44:11;8.70;;;7.13;;
23747;SDS011;12054;53.662;10.126;2023-05-10T13:46:37;9.55;;;7.22;;
23747;SDS011;12054;53.662;10.126;2023-05-10T13:49:03;8.68;;;6.97;;
23747;SDS011;12054;53.662;10.126;2023-05-10T13:51:29;8.80;;;6.57;;
23747;SDS011;12054;53.662;10.126;2023-05-10T13:53:56;8.40;;;7.07;;
23747;SDS011;12054;53.662;10.126;2023-05-10T13:56:22;10.43;;;6.53;;
23747;SDS011;12054;53.662;10.126;2023-05-10T13:58:47;8.65;;;7.10;;
23747;SDS011;12054;53.662;10.126;2023-05-10T14:01:13;8.27;;;6.88;;
23747;SDS011;12054;53.662;10.126;2023-05-10T14:03:38;7.55;;;6.53;;
23747;SDS011;12054;53.662;10.126;2023-05-10T14:06:04;6.97;;;6.28;;
23747;SDS011;12054;53.662;10.126;2023-05-10T14:08:30;7.50;;;6.30;;
23747;SDS011;12054;53.662;10.126;2023-05-10T14:10:55;7.78;;;6.88;;
23747;SDS011;12054;53.662;10.126;2023-05-10T14:13:21;8.32;;;6.22;;
23747;SDS011;12054;53.662;10.126;2023-05-10T14:15:47;8.23;;;6.45;;
23747;SDS011;12054;53.662;10.126;2023-05-10T14:18:12;6.82;;;6.10;;
23747;SDS011;12054;53.662;10.126;2023-05-10T14:20:38;7.63;;;6.75;;
23747;SDS011;12054;53.662;10.126;2023-05-10T14:23:03;7.03;;;6.32;;
23747;SDS011;12054;53.662;10.126;2023-05-10T14:25:29;6.60;;;5.40;;
23747;SDS011;12054;53.662;10.126;2023-05-10T14:27:54;6.13;;;5.55;;
23747;SDS011;12054;53.662;10.126;2023-05-10T14:30:20;6.00;;;5.32;;
23747;SDS011;12054;53.662;10.126;2023-05-10T14:32:45;7.93;;;5.80;;
23747;SDS011;12054;53.662;10.126;2023-05-10T14:35:11;6.70;;;5.82;;
23747;SDS011;12054;53.662;10.126;2023-05-10T14:37:37;5.90;;;5.30;;
23747;SDS011;12054;53.662;10.126;2023-05-10T14:40:03;6.30;;;5.60;;
23747;SDS011;12054;53.662;10.126;2023-05-10T14:42:29;6.10;;;5.50;;
23747;SDS011;12054;53.662;10.126;2023-05-10T14:44:56;6.72;;;5.90;;
23747;SDS011;12054;53.662;10.126;2023-05-10T14:47:21;7.82;;;6.32;;
23747;SDS011;12054;53.662;10.126;2023-05-10T14:49:47;6.50;;;5.72;;
23747;SDS011;12054;53.662;10.126;2023-05-10T14:52:12;8.13;;;6.40;;
23747;SDS011;12054;53.662;10.126;2023-05-10T14:54:39;6.85;;;6.15;;
23747;SDS011;12054;53.662;10.126;2023-05-10T14:57:05;7.15;;;6.00;;
23747;SDS011;12054;53.662;10.126;2023-05-10T14:59:31;6.82;;;5.88;;
23747;SDS011;12054;53.662;10.126;2023-05-10T15:01:56;7.82;;;6.43;;
23747;SDS011;12054;53.662;10.126;2023-05-10T15:04:22;7.40;;;6.05;;